Accueil
METAR-TAF:

METAR-TAF

Aéroports :

Mendoza, Argentine

latitude: 32-50S, longitude: 068-47W, altitude: 705 m

Observation

Le bulletin a été fait il y a 57 minutes, à 23:00 UTC
Vent 4 kt de nord-est
Température 25°C
Humidité 47%
Pression 1012 hPa
Visibilité 10 km ou plus
pas de nuages en-dessous de 1500 mètres et pas de cumulonimbus.

METAR: SAME 202300Z 05004KT CAVOK 25/13 Q1012

Heure: 20:57 (23:57 UTC)

Prévision

Le bulletin a été fait il y a 57 minutes, à 23:00 UTC
Prévision valable du 21 à 00 UTC au 21 à 24 UTC
Vent 5 kt de sud/sud-ouest
Visibilité 10 km ou plus
pas de nuages en-dessous de 1500 mètres et pas de cumulonimbus.
Evoluant progressivement
du 21 à 15 UTC au 21 à 17 UTC
Vent 10 kt de nord

TAF: SAME 202300Z 2100/2124 20005KT CAVOK TN15/2111Z TX31/2120Z BECMG 2115/2117 36010KT

Observations et prévisions météorologiques de plus de 4000 aéroports (messages METAR et TAF).

Les stations disponibles sont représentées par des disques jaunes et rouges sur la carte.

Passer la souris dessus pour voir le nom de la station.

Cliquer dessus pour voir les observations et prévisions météorologiques.

Pour changer de carte: cliquez sur les boutons verts avec une croix noire pour zoomer, sur le bouton vert avec un tiret pour effectuer un zoom arrière, ou sur les flèches vertes pour les cartes adjacentes.


METAR-TAF: